Easterwood Field
KCLL : now visible

Airfield :











YOU CAN JOIN US ON...

 
LOGIN :

Register | Disclaimer

   EN    FR    IT 

 









Legend :    VFR   Marginal VFR   IFR   Intensive IFR   Very Intensive IFR
Visi :
Ceiling :
>= 8 km
>= 3000ft
5 to 8 km
1000 to 3000 ft
1500m to 5 km
500 to 1000 ft
800 to 1500m
200 to 500 ft
< 800m
< 200 ft
Symbols :   Thunderstorms  Fog  Heavy snow  Heavy precipitations  Wind > 20 kt







- Airport Elevation : 320 ft
- IATA code : CLL


KCLL - Easterwood Field

CURRENT METAR :
  • 162253Z 09011KT 10SM SCT090 35/18 A2989 RMK AO2 SLP117 T03500183

EXPIRED METARs :
  • 162153Z 06008KT 10SM FEW070 34/18 A2990 RMK AO2 SLP119 T03440183
  • 162053Z 06011G15KT 10SM SCT070 34/18 A2991 RMK AO2 SLP122 T03440183 58028

TAF KCLL
Valid from the 16 at 18:00 until the 17 at 18:00 UTC


161725Z 1618/1718 07008KT P6SM SCT050
FM170200 09006KT P6SM SCT040 BKN120
FM171200 07005KT P6SM FEW015 SCT020
FM171600 08008KT P6SM SCT030 BKN050
No reported NOTAMs for that airfield.



MET'MAP, your aeronautical weather chart ! - Copyright ORBIFLY December 2007 - Disclaimer

ORBIFLY MET'MAP TEAM :

Programming & Development : Alexandra Zaïnal
Concept & Development : Baudouin d'Aumeries
Co-Development & Prog : Marc-Olivier Méhu
Technical & hardware support : Manuel Goepfert

Contact : metmap@orbifly.com




SOURCES & CREDITS :

   NOAA       Earth
Advisory